Time;durP1;ratioP1;P1;durP2;ratioP2;P2;SDS_P1;SDS_P2;PMS_P1;PMS_P2;Temp;Humidity;BMP_temperature;BMP_pressure;BME280_temperature;BME280_humidity;BME280_pressure;Samples;Min_cycle;Max_cycle;Signal;HPM_P1;HPM_P2
2023/04/15 00:00:39;;;;;;;5.53;4.07;;;;;;;7.47;69.31;97360.69;7404763;19;19933;-80
2023/04/15 00:03:07;;;;;;;4.63;3.72;;;;;;;7.35;69.05;97354.94;7408974;19;19923;-81
2023/04/15 00:05:34;;;;;;;4.90;3.95;;;;;;;7.28;68.81;97348.66;7408542;19;19907;-79
2023/04/15 00:08:00;;;;;;;4.93;4.53;;;;;;;7.23;69.30;97343.03;7405224;19;19911;-81
2023/04/15 00:10:27;;;;;;;4.93;3.75;;;;;;;7.17;69.17;97348.94;7407398;19;19946;-76
2023/04/15 00:12:54;;;;;;;6.90;4.38;;;;;;;7.09;69.23;97351.56;7395568;19;19919;-79
2023/04/15 00:15:21;;;;;;;7.40;4.78;;;;;;;7.13;69.80;97347.59;7393369;19;19935;-79
2023/04/15 00:17:50;;;;;;;6.72;3.97;;;;;;;7.13;69.55;97345.78;7390208;19;19922;-80
2023/04/15 00:20:17;;;;;;;9.75;6.57;;;;;;;7.16;69.62;97342.88;7393611;19;20641;-79
2023/04/15 00:22:45;;;;;;;6.65;4.60;;;;;;;7.19;69.52;97345.19;7390664;19;19915;-79
2023/04/15 00:25:12;;;;;;;4.45;3.80;;;;;;;7.21;70.12;97342.38;7395144;19;19918;-79
2023/04/15 00:27:39;;;;;;;7.22;4.13;;;;;;;7.22;70.01;97341.41;7387634;19;20645;-79
2023/04/15 00:30:06;;;;;;;8.10;4.50;;;;;;;7.16;69.68;97342.03;7392926;19;19945;-79
2023/04/15 00:32:33;;;;;;;4.22;3.67;;;;;;;7.13;69.66;97344.97;7387000;19;19919;-80
2023/04/15 00:35:01;;;;;;;6.70;4.80;;;;;;;7.09;70.01;97346.28;7391464;19;19939;-79
2023/04/15 00:37:28;;;;;;;4.82;4.00;;;;;;;7.00;69.88;97348.06;7391890;19;19922;-78
2023/04/15 00:39:55;;;;;;;6.75;3.75;;;;;;;6.95;69.97;97337.19;7393039;19;19919;-78
2023/04/15 00:42:22;;;;;;;6.70;4.43;;;;;;;7.04;70.21;97331.00;7385849;19;19951;-80
2023/04/15 00:44:49;;;;;;;7.25;4.03;;;;;;;7.08;69.91;97340.19;7389017;19;20325;-78
2023/04/15 00:47:17;;;;;;;6.40;4.15;;;;;;;7.02;69.85;97336.41;7391143;19;19919;-82
2023/04/15 00:49:44;;;;;;;5.55;3.92;;;;;;;6.98;69.86;97339.53;7384507;19;19931;-79
2023/04/15 00:52:12;;;;;;;7.18;3.95;;;;;;;6.93;70.11;97334.72;7391100;19;19915;-77
2023/04/15 00:54:38;;;;;;;5.88;3.85;;;;;;;6.92;70.21;97346.22;7388497;19;19922;-79
2023/04/15 00:57:06;;;;;;;5.28;3.67;;;;;;;6.90;70.07;97342.94;7393244;19;19935;-79
2023/04/15 00:59:32;;;;;;;9.52;5.65;;;;;;;6.89;69.87;97341.28;7385959;19;19926;-79
2023/04/15 01:02:00;;;;;;;5.55;4.28;;;;;;;6.87;70.01;97337.97;7391634;19;19919;-79
2023/04/15 01:04:27;;;;;;;6.53;4.80;;;;;;;6.82;69.89;97341.09;7387535;19;19919;-80
2023/04/15 01:06:54;;;;;;;7.43;4.82;;;;;;;6.87;70.46;97345.84;7386612;19;19914;-80
2023/04/15 01:09:21;;;;;;;6.18;4.10;;;;;;;6.82;70.58;97346.34;7389519;19;19934;-79
2023/04/15 01:11:49;;;;;;;6.28;5.60;;;;;;;6.80;70.83;97337.78;7386506;19;19922;-78
2023/04/15 01:14:16;;;;;;;7.75;4.00;;;;;;;6.75;70.81;97337.44;7387673;19;19979;-78
2023/04/15 01:16:44;;;;;;;4.75;4.05;;;;;;;6.71;70.57;97340.53;7383795;19;19922;-81
2023/04/15 01:19:12;;;;;;;7.50;5.90;;;;;;;6.70;70.66;97344.16;7388176;19;20289;-78
2023/04/15 01:21:39;;;;;;;6.45;4.97;;;;;;;6.70;70.57;97346.78;7383660;19;19906;-78
2023/04/15 01:24:12;;;;;;;7.63;4.63;;;;;;;6.56;70.66;97353.44;7391859;19;19918;-82
2023/04/15 01:26:39;;;;;;;5.45;4.18;;;;;;;6.48;70.85;97348.13;7383719;19;19919;-80
2023/04/15 01:29:07;;;;;;;6.28;4.40;;;;;;;6.40;71.27;97348.91;7388434;19;19925;-77
2023/04/15 01:31:34;;;;;;;7.82;4.55;;;;;;;6.41;70.51;97342.66;7385914;19;20451;-77
2023/04/15 01:34:01;;;;;;;4.95;3.55;;;;;;;6.38;70.80;97345.59;7389551;19;20005;-82
2023/04/15 01:36:28;;;;;;;6.78;3.85;;;;;;;6.36;70.56;97344.94;7390859;19;19925;-78
2023/04/15 01:38:56;;;;;;;6.35;4.65;;;;;;;6.42;70.95;97343.47;7387654;19;20023;-77
2023/04/15 01:41:26;;;;;;;5.45;3.88;;;;;;;6.54;71.38;97352.75;7384528;19;20336;-80
2023/04/15 01:43:53;;;;;;;4.00;3.60;;;;;;;6.54;70.85;97345.69;7384011;19;19935;-80
2023/04/15 01:46:20;;;;;;;6.45;4.45;;;;;;;6.51;70.76;97346.00;7385534;19;19947;-80
2023/04/15 01:48:47;;;;;;;5.78;3.55;;;;;;;6.50;70.47;97344.38;7378812;19;19926;-78
2023/04/15 01:51:14;;;;;;;5.80;4.43;;;;;;;6.49;70.63;97331.38;7385367;19;19918;-78
2023/04/15 01:53:41;;;;;;;6.60;4.20;;;;;;;6.57;70.93;97332.25;7388689;19;19955;-77
2023/04/15 01:56:08;;;;;;;5.75;4.95;;;;;;;6.59;71.01;97338.19;7395326;19;19915;-77
2023/04/15 01:58:34;;;;;;;7.25;4.47;;;;;;;6.50;71.25;97340.91;7389191;19;19953;-79
2023/04/15 02:01:02;;;;;;;5.20;4.13;;;;;;;6.53;71.54;97330.06;7389132;19;20356;-78
2023/04/15 02:03:30;;;;;;;4.68;3.67;;;;;;;6.48;71.60;97327.13;7391321;19;19922;-78
2023/04/15 02:05:57;;;;;;;6.75;3.88;;;;;;;6.40;71.24;97322.63;7386425;19;19947;-77
2023/04/15 02:08:24;;;;;;;7.47;4.20;;;;;;;6.42;71.32;97319.84;7392161;19;19915;-79
2023/04/15 02:10:51;;;;;;;6.40;4.40;;;;;;;6.42;71.48;97319.84;7390324;19;19922;-77
2023/04/15 02:13:18;;;;;;;5.88;4.10;;;;;;;6.37;71.55;97330.81;7388911;19;19928;-77
2023/04/15 02:15:49;;;;;;;6.63;4.63;;;;;;;6.38;71.73;97327.22;7388276;19;19957;-77
2023/04/15 02:18:18;;;;;;;5.15;4.07;;;;;;;6.35;71.72;97328.34;7391558;19;19915;-77
2023/04/15 02:20:45;;;;;;;8.00;4.13;;;;;;;6.26;71.59;97324.00;7387380;19;19926;-79
2023/04/15 02:23:12;;;;;;;5.13;4.10;;;;;;;6.28;71.62;97322.06;7390155;19;20557;-77
2023/04/15 02:25:42;;;;;;;6.60;5.70;;;;;;;6.27;71.87;97328.31;7387442;19;20268;-78
2023/04/15 02:28:20;;;;;;;5.82;4.38;;;;;;;6.20;71.24;97329.88;7392675;19;19918;-79
2023/04/15 02:30:51;;;;;;;6.90;4.63;;;;;;;6.23;71.83;97332.19;7390033;19;19914;-76
2023/04/15 02:33:20;;;;;;;4.90;4.28;;;;;;;6.25;71.89;97329.44;7391228;19;19929;-76
2023/04/15 02:35:47;;;;;;;5.90;4.20;;;;;;;6.26;72.04;97328.44;7385955;19;19926;-76
2023/04/15 02:38:15;;;;;;;5.18;4.57;;;;;;;6.28;72.24;97327.31;7394675;19;19915;-78
2023/04/15 02:40:42;;;;;;;6.10;4.28;;;;;;;6.26;72.15;97318.75;7387349;19;19944;-80
2023/04/15 02:43:09;;;;;;;5.20;4.57;;;;;;;6.11;71.44;97334.28;7387726;19;19926;-77
2023/04/15 02:45:36;;;;;;;7.13;4.22;;;;;;;6.03;71.67;97326.34;7387134;19;19926;-77
2023/04/15 02:48:05;;;;;;;7.25;4.20;;;;;;;6.02;71.97;97329.09;7391855;19;19935;-79
2023/04/15 02:50:32;;;;;;;7.47;4.90;;;;;;;6.00;72.63;97331.88;7391814;19;19918;-78
2023/04/15 02:53:00;;;;;;;5.13;3.75;;;;;;;6.05;72.86;97331.41;7387072;19;19923;-77
2023/04/15 02:55:28;;;;;;;5.70;4.47;;;;;;;6.08;72.80;97333.72;7390324;19;19918;-78
2023/04/15 02:57:56;;;;;;;8.52;4.70;;;;;;;6.12;72.41;97327.22;7387332;19;20526;-78
2023/04/15 03:00:24;;;;;;;4.88;4.05;;;;;;;6.15;72.49;97319.03;7392428;19;20368;-76
2023/04/15 03:02:55;;;;;;;4.45;3.97;;;;;;;6.17;72.45;97326.75;7386462;19;19922;-77
2023/04/15 03:05:25;;;;;;;4.93;4.40;;;;;;;6.20;72.42;97321.19;7388752;19;19935;-79
2023/04/15 03:07:52;;;;;;;5.80;5.30;;;;;;;6.22;72.40;97327.94;7387264;19;20401;-80
2023/04/15 03:10:20;;;;;;;4.68;4.13;;;;;;;6.24;72.32;97333.03;7388698;19;19922;-76
2023/04/15 03:12:47;;;;;;;5.25;3.65;;;;;;;6.29;72.17;97334.22;7384596;19;19974;-77
2023/04/15 03:15:17;;;;;;;8.02;5.68;;;;;;;6.31;72.37;97327.00;7392591;19;20267;-76
2023/04/15 03:17:48;;;;;;;5.32;4.07;;;;;;;6.38;72.52;97332.47;7386632;19;19922;-78
2023/04/15 03:20:15;;;;;;;6.05;4.00;;;;;;;6.31;72.22;97332.25;7386407;19;20394;-77
2023/04/15 03:22:42;;;;;;;6.90;4.15;;;;;;;6.28;71.90;97326.50;7386006;19;19994;-78
2023/04/15 03:25:09;;;;;;;7.90;4.85;;;;;;;6.28;71.92;97329.13;7391539;19;19944;-76
2023/04/15 03:27:37;;;;;;;5.15;4.05;;;;;;;6.28;72.20;97321.25;7386674;19;19918;-79
2023/04/15 03:30:05;;;;;;;5.72;4.60;;;;;;;6.32;72.28;97322.59;7388467;19;19978;-78
2023/04/15 03:32:35;;;;;;;7.30;4.55;;;;;;;6.35;72.23;97320.47;7393027;19;19918;-79
2023/04/15 03:35:02;;;;;;;5.57;4.18;;;;;;;6.38;72.22;97324.59;7392997;19;19923;-78
2023/04/15 03:37:28;;;;;;;5.75;4.50;;;;;;;6.35;71.95;97320.47;7392711;19;19922;-79
2023/04/15 03:39:55;;;;;;;6.38;4.65;;;;;;;6.28;72.19;97322.06;7385427;19;19918;-79
2023/04/15 03:42:22;;;;;;;6.05;4.22;;;;;;;6.19;72.01;97316.91;7387420;19;19923;-77
2023/04/15 03:44:48;;;;;;;6.13;4.22;;;;;;;6.13;72.05;97318.34;7386603;19;19939;-79
2023/04/15 03:47:15;;;;;;;4.88;4.03;;;;;;;6.18;72.55;97323.13;7392841;19;19935;-77
2023/04/15 03:49:42;;;;;;;6.85;5.55;;;;;;;6.21;72.28;97320.19;7382546;19;20355;-81
2023/04/15 03:52:09;;;;;;;3.70;3.38;;;;;;;6.25;72.45;97321.56;7387300;19;19918;-80
2023/04/15 03:54:35;;;;;;;5.63;4.03;;;;;;;6.26;72.44;97317.94;7391387;19;19926;-77
2023/04/15 03:57:02;;;;;;;4.50;4.07;;;;;;;6.25;72.61;97311.88;7392524;19;19923;-78
2023/04/15 03:59:29;;;;;;;5.55;4.75;;;;;;;6.24;72.28;97325.13;7388680;19;20381;-79
2023/04/15 04:01:56;;;;;;;7.50;4.38;;;;;;;6.24;72.45;97314.63;7385993;19;19939;-76
2023/04/15 04:04:23;;;;;;;3.80;3.15;;;;;;;6.24;72.46;97319.88;7389134;19;20916;-78
2023/04/15 04:06:49;;;;;;;6.63;3.72;;;;;;;6.24;72.60;97325.13;7386673;19;19981;-76
2023/04/15 04:09:16;;;;;;;6.85;4.38;;;;;;;6.22;72.31;97320.06;7389059;19;19943;-77
2023/04/15 04:11:44;;;;;;;5.90;3.97;;;;;;;6.20;72.65;97329.06;7387347;19;19918;-80
2023/04/15 04:14:11;;;;;;;5.97;5.10;;;;;;;6.19;72.75;97330.03;7390092;19;19926;-76
2023/04/15 04:16:38;;;;;;;6.15;5.13;;;;;;;6.14;72.46;97338.38;7387378;19;19914;-77
2023/04/15 04:19:05;;;;;;;5.35;4.18;;;;;;;6.10;72.66;97335.22;7388311;19;20359;-77
2023/04/15 04:21:33;;;;;;;6.63;5.82;;;;;;;6.06;72.42;97338.34;7389952;19;20349;-79
2023/04/15 04:23:59;;;;;;;7.03;4.95;;;;;;;6.01;72.49;97344.03;7385146;19;19919;-77
2023/04/15 04:26:26;;;;;;;6.85;4.47;;;;;;;5.99;72.91;97343.34;7389290;19;19918;-78
2023/04/15 04:28:53;;;;;;;5.13;4.00;;;;;;;5.96;72.61;97340.22;7384860;19;19918;-76
2023/04/15 04:31:20;;;;;;;5.88;5.00;;;;;;;5.94;72.72;97340.34;7390242;19;19922;-77
2023/04/15 04:33:46;;;;;;;4.65;4.20;;;;;;;5.95;72.48;97342.03;7386088;19;19930;-78
2023/04/15 04:36:13;;;;;;;5.15;3.92;;;;;;;5.88;72.48;97339.13;7386409;19;19932;-78
2023/04/15 04:38:40;;;;;;;5.15;4.07;;;;;;;5.78;72.51;97346.25;7387813;19;19922;-77
2023/04/15 04:41:07;;;;;;;5.43;4.38;;;;;;;5.70;72.54;97348.81;7388573;19;19931;-78
2023/04/15 04:43:33;;;;;;;4.88;4.22;;;;;;;5.69;72.83;97352.44;7387506;19;19911;-77
2023/04/15 04:46:00;;;;;;;6.38;4.32;;;;;;;5.66;73.01;97348.31;7386766;19;19915;-78
2023/04/15 04:48:27;;;;;;;8.32;4.40;;;;;;;5.67;73.34;97351.75;7388821;19;19925;-78
2023/04/15 04:50:54;;;;;;;6.05;4.03;;;;;;;5.63;73.17;97358.25;7385091;19;19942;-77
2023/04/15 04:53:21;;;;;;;6.70;4.43;;;;;;;5.59;73.22;97351.69;7391430;19;19943;-80
2023/04/15 04:55:47;;;;;;;6.22;5.07;;;;;;;5.55;73.22;97353.75;7386919;19;20349;-80
2023/04/15 04:58:14;;;;;;;5.80;5.13;;;;;;;5.59;73.31;97355.13;7390881;19;19953;-79
2023/04/15 05:00:42;;;;;;;6.85;5.53;;;;;;;5.58;73.33;97350.84;7387142;19;19914;-79
2023/04/15 05:03:09;;;;;;;6.53;4.65;;;;;;;5.57;73.33;97353.63;7389042;19;19959;-78
2023/04/15 05:05:38;;;;;;;7.85;3.85;;;;;;;5.49;73.10;97354.34;7389153;19;19923;-79
2023/04/15 05:08:05;;;;;;;8.00;4.10;;;;;;;5.48;73.69;97348.28;7391249;19;19918;-79
2023/04/15 05:10:31;;;;;;;9.02;4.10;;;;;;;5.52;73.99;97348.81;7401218;19;19931;-81
2023/04/15 05:12:58;;;;;;;6.32;4.32;;;;;;;5.55;73.91;97345.88;7405756;19;19915;-80
2023/04/15 05:15:25;;;;;;;6.72;3.97;;;;;;;5.59;73.88;97349.88;7409590;19;19915;-80
2023/04/15 05:17:52;;;;;;;7.25;5.00;;;;;;;5.55;73.69;97351.13;7405966;19;19935;-80
2023/04/15 05:20:18;;;;;;;7.72;3.42;;;;;;;5.56;73.45;97350.19;7407004;19;20164;-80
2023/04/15 05:22:45;;;;;;;4.53;4.07;;;;;;;5.60;73.84;97348.88;7397997;19;19922;-80
2023/04/15 05:25:12;;;;;;;7.53;3.88;;;;;;;5.63;73.21;97347.75;7405653;19;20551;-80
2023/04/15 05:27:39;;;;;;;4.43;4.03;;;;;;;5.62;73.42;97357.44;7409778;19;20353;-81
2023/04/15 05:30:07;;;;;;;7.03;4.50;;;;;;;5.63;73.40;97353.00;7407640;19;19932;-80
2023/04/15 05:32:34;;;;;;;6.28;4.68;;;;;;;5.59;73.48;97360.38;7408289;19;19921;-81
2023/04/15 05:35:01;;;;;;;5.45;4.32;;;;;;;5.60;73.59;97359.38;7406291;19;21584;-80
2023/04/15 05:37:28;;;;;;;6.53;5.00;;;;;;;5.61;73.88;97366.28;7414381;19;20331;-80
2023/04/15 05:39:55;;;;;;;5.60;4.72;;;;;;;5.64;73.78;97360.75;7399150;19;19925;-79
2023/04/15 05:42:22;;;;;;;5.63;3.97;;;;;;;5.70;73.87;97362.75;7398563;19;19933;-80
2023/04/15 05:44:49;;;;;;;6.75;4.80;;;;;;;5.72;73.70;97363.44;7402277;19;19943;-81
2023/04/15 05:47:16;;;;;;;4.95;4.18;;;;;;;5.72;73.53;97365.25;7409464;19;19939;-79
2023/04/15 05:49:42;;;;;;;6.47;4.13;;;;;;;5.76;73.74;97368.38;7385266;19;19922;-80
2023/04/15 05:52:09;;;;;;;5.93;4.20;;;;;;;5.82;73.81;97367.78;7390069;19;19922;-80
2023/04/15 05:54:36;;;;;;;11.63;4.97;;;;;;;5.89;73.75;97374.09;7391966;19;19918;-78
2023/04/15 05:57:04;;;;;;;6.80;4.40;;;;;;;6.00;73.88;97380.94;7387405;19;19922;-79
2023/04/15 05:59:31;;;;;;;8.10;5.13;;;;;;;6.09;73.84;97365.09;7395481;19;19961;-78
2023/04/15 06:01:58;;;;;;;6.13;4.03;;;;;;;6.19;73.89;97372.91;7385535;19;19919;-79
2023/04/15 06:04:25;;;;;;;5.80;4.57;;;;;;;6.30;73.78;97370.00;7392086;19;19981;-78
2023/04/15 06:06:52;;;;;;;6.32;4.55;;;;;;;6.40;73.68;97379.59;7383082;19;20019;-79
2023/04/15 06:09:19;;;;;;;7.10;4.45;;;;;;;6.50;73.69;97365.41;7384785;19;19907;-79
2023/04/15 06:11:46;;;;;;;6.07;4.10;;;;;;;6.59;73.53;97369.72;7380435;19;19919;-79
2023/04/15 06:14:12;;;;;;;5.90;4.25;;;;;;;6.71;73.88;97372.06;7390266;19;19947;-79
2023/04/15 06:16:39;;;;;;;6.68;6.07;;;;;;;6.77;74.09;97374.91;7394162;19;20617;-80
2023/04/15 06:19:06;;;;;;;6.45;4.32;;;;;;;6.88;73.66;97380.88;7382961;19;19935;-81
2023/04/15 06:21:33;;;;;;;5.95;4.15;;;;;;;6.98;73.52;97376.34;7391507;19;19924;-78
2023/04/15 06:24:00;;;;;;;4.43;3.47;;;;;;;7.02;72.98;97381.09;7384312;19;19946;-80
2023/04/15 06:26:27;;;;;;;7.63;6.80;;;;;;;7.09;72.93;97383.13;7393462;19;20322;-81
2023/04/15 06:28:54;;;;;;;5.05;4.25;;;;;;;7.17;73.11;97388.41;7383681;19;19926;-79
2023/04/15 06:31:21;;;;;;;6.28;4.30;;;;;;;7.25;72.98;97391.06;7390166;19;20366;-81
2023/04/15 06:33:48;;;;;;;5.78;4.78;;;;;;;7.30;72.65;97388.78;7385856;19;19923;-80
2023/04/15 06:36:15;;;;;;;4.35;3.33;;;;;;;7.26;71.40;97383.00;7390127;19;19923;-79
2023/04/15 06:38:41;;;;;;;5.70;4.45;;;;;;;7.26;71.35;97387.44;7388691;19;19950;-81
2023/04/15 06:41:08;;;;;;;5.85;4.68;;;;;;;7.30;71.13;97395.84;7381530;19;19922;-79
2023/04/15 06:43:35;;;;;;;6.22;5.40;;;;;;;7.25;71.12;97398.97;7389418;19;19926;-78
2023/04/15 06:46:02;;;;;;;6.25;4.43;;;;;;;7.23;70.42;97395.66;7386984;19;19917;-79
2023/04/15 06:48:30;;;;;;;6.10;3.60;;;;;;;7.28;70.85;97395.19;7392518;19;19928;-81
2023/04/15 06:50:57;;;;;;;6.18;3.90;;;;;;;7.32;70.41;97401.75;7380934;19;19922;-80
2023/04/15 06:53:26;;;;;;;7.60;4.63;;;;;;;7.34;70.57;97394.53;7389473;19;20659;-80
2023/04/15 06:55:53;;;;;;;6.82;5.93;;;;;;;7.41;70.76;97390.31;7388970;19;20250;-79
2023/04/15 06:58:20;;;;;;;5.22;4.05;;;;;;;7.49;70.57;97395.59;7390342;19;19914;-81
2023/04/15 07:00:47;;;;;;;7.13;4.38;;;;;;;7.52;70.52;97392.63;7388001;19;20352;-80
2023/04/15 07:03:14;;;;;;;6.38;5.78;;;;;;;7.56;70.46;97395.78;7389305;19;19918;-79
2023/04/15 07:05:42;;;;;;;5.63;4.25;;;;;;;7.60;70.26;97397.09;7389636;19;19918;-79
2023/04/15 07:08:09;;;;;;;8.32;4.85;;;;;;;7.60;70.01;97387.38;7386921;19;19958;-79
2023/04/15 07:10:36;;;;;;;5.97;4.10;;;;;;;7.58;69.67;97391.16;7390210;19;19948;-80
2023/04/15 07:13:03;;;;;;;5.50;4.03;;;;;;;7.66;69.82;97384.13;7382627;19;19930;-79
2023/04/15 07:15:30;;;;;;;7.30;4.47;;;;;;;7.76;70.02;97393.66;7385488;19;19951;-81
2023/04/15 07:17:56;;;;;;;6.70;4.80;;;;;;;7.85;69.61;97390.88;7382398;19;19966;-78
2023/04/15 07:20:23;;;;;;;4.85;3.97;;;;;;;7.97;69.26;97387.94;7387183;19;19949;-76
2023/04/15 07:22:50;;;;;;;5.45;3.95;;;;;;;8.07;68.59;97385.97;7383279;19;19922;-77
2023/04/15 07:25:17;;;;;;;5.47;4.28;;;;;;;8.29;68.60;97384.47;7388105;19;19939;-78
2023/04/15 07:27:44;;;;;;;5.75;3.78;;;;;;;8.45;67.81;97386.31;7391877;19;19947;-81
2023/04/15 07:30:14;;;;;;;6.35;4.25;;;;;;;8.72;68.19;97388.59;7379836;19;19939;-79
2023/04/15 07:32:47;;;;;;;5.13;4.00;;;;;;;8.92;67.81;97383.75;7386261;19;19921;-83
2023/04/15 07:35:14;;;;;;;8.25;6.82;;;;;;;9.15;66.84;97394.38;7388092;19;20284;-83
2023/04/15 07:37:42;;;;;;;7.20;4.05;;;;;;;9.33;66.65;97386.25;7392535;19;19954;-79
2023/04/15 07:40:09;;;;;;;7.72;4.28;;;;;;;9.36;65.60;97388.53;7383626;19;19918;-79
2023/04/15 07:42:36;;;;;;;6.07;4.28;;;;;;;9.43;65.13;97394.78;7389193;19;19922;-77
2023/04/15 07:45:06;;;;;;;4.93;3.17;;;;;;;9.53;64.88;97386.66;7387129;19;20013;-78
2023/04/15 07:47:33;;;;;;;5.80;3.47;;;;;;;9.62;64.70;97387.41;7390206;19;19961;-76
2023/04/15 07:50:01;;;;;;;5.15;4.65;;;;;;;9.60;63.60;97386.75;7382118;19;19985;-78
2023/04/15 07:52:27;;;;;;;7.05;4.22;;;;;;;9.70;64.23;97384.72;7392446;19;20034;-76
2023/04/15 07:54:54;;;;;;;5.68;4.15;;;;;;;9.73;63.18;97386.19;7385230;19;19918;-78
2023/04/15 07:57:21;;;;;;;5.95;4.00;;;;;;;9.85;63.65;97379.53;7391405;19;19926;-80
2023/04/15 07:59:48;;;;;;;6.03;5.28;;;;;;;10.02;64.46;97385.50;7391136;19;19925;-77
2023/04/15 08:02:15;;;;;;;5.93;3.83;;;;;;;10.20;64.79;97383.38;7391174;19;19914;-79
2023/04/15 08:04:42;;;;;;;5.55;3.80;;;;;;;10.36;63.88;97365.78;7389083;19;19923;-78
2023/04/15 08:07:09;;;;;;;6.28;3.75;;;;;;;10.51;63.15;97374.56;7389322;19;19922;-78
2023/04/15 08:09:36;;;;;;;7.22;4.25;;;;;;;10.61;63.25;97372.50;7389417;19;19943;-77
2023/04/15 08:12:03;;;;;;;7.68;3.83;;;;;;;10.84;61.21;97372.41;7384660;19;19930;-80
2023/04/15 08:14:30;;;;;;;4.25;3.85;;;;;;;10.90;60.64;97371.69;7382799;19;19922;-79
2023/04/15 08:16:57;;;;;;;6.28;3.78;;;;;;;11.16;61.06;97373.88;7385385;19;19922;-79
2023/04/15 08:19:24;;;;;;;6.80;4.55;;;;;;;11.24;60.56;97364.97;7383255;19;19918;-80
2023/04/15 08:21:51;;;;;;;5.22;4.05;;;;;;;11.35;60.99;97367.19;7381314;19;20384;-79
2023/04/15 08:24:18;;;;;;;5.88;4.47;;;;;;;11.35;60.83;97366.38;7386885;19;19939;-80
2023/04/15 08:26:46;;;;;;;7.60;4.22;;;;;;;11.33;60.88;97369.19;7392642;19;20286;-78
2023/04/15 08:29:12;;;;;;;8.18;4.68;;;;;;;11.39;61.52;97371.09;7384769;19;19914;-79
2023/04/15 08:31:39;;;;;;;8.75;4.93;;;;;;;11.49;61.86;97368.16;7385957;19;20007;-78
2023/04/15 08:34:06;;;;;;;5.50;3.60;;;;;;;11.54;62.32;97371.06;7381810;19;19910;-82
2023/04/15 08:36:33;;;;;;;9.13;5.05;;;;;;;11.71;62.51;97370.84;7389928;19;20015;-79
2023/04/15 08:39:00;;;;;;;6.50;4.35;;;;;;;11.91;60.14;97371.09;7386910;19;19941;-79
2023/04/15 08:41:34;;;;;;;4.97;4.45;;;;;;;11.82;57.96;97371.19;7380298;19;19923;-77
2023/04/15 08:44:03;;;;;;;5.30;3.85;;;;;;;11.68;57.91;97373.84;7381747;19;19930;-80
2023/04/15 08:46:33;;;;;;;4.53;3.38;;;;;;;11.74;56.40;97375.75;7385367;19;19918;-82
2023/04/15 08:49:03;;;;;;;5.63;3.55;;;;;;;11.86;54.84;97372.47;7385493;19;19922;-80
2023/04/15 08:51:31;;;;;;;5.90;3.40;;;;;;;12.02;56.67;97373.22;7388239;19;21092;-80
2023/04/15 08:53:58;;;;;;;4.93;2.92;;;;;;;11.94;54.35;97378.66;7383515;19;19922;-79
2023/04/15 08:56:28;;;;;;;4.72;2.83;;;;;;;12.18;54.81;97378.25;7387351;19;19954;-79
2023/04/15 08:58:55;;;;;;;5.38;3.63;;;;;;;12.17;53.12;97381.94;7385663;19;19930;-78
2023/04/15 09:01:22;;;;;;;3.58;2.85;;;;;;;12.32;54.24;97371.25;7386059;19;19926;-81
2023/04/15 09:03:49;;;;;;;5.38;3.75;;;;;;;11.97;52.59;97372.97;7388249;19;19943;-81
2023/04/15 09:06:16;;;;;;;6.20;4.45;;;;;;;12.02;54.14;97371.38;7386155;19;21357;-81
2023/04/15 09:08:43;;;;;;;7.25;4.53;;;;;;;12.21;53.61;97374.41;7387449;19;20276;-80
2023/04/15 09:11:11;;;;;;;5.38;3.33;;;;;;;12.16;53.68;97380.28;7379013;19;19929;-79
2023/04/15 09:13:38;;;;;;;6.43;4.47;;;;;;;12.37;53.08;97371.47;7389323;19;19932;-78
2023/04/15 09:16:05;;;;;;;6.28;5.22;;;;;;;12.49;53.80;97375.25;7381022;19;20568;-81
2023/04/15 09:18:34;;;;;;;6.22;3.75;;;;;;;12.67;53.90;97381.94;7387970;19;20606;-79
2023/04/15 09:21:10;;;;;;;4.60;3.40;;;;;;;12.85;53.72;97376.97;7377790;19;19922;-82
2023/04/15 09:26:17;;;;;;;8.20;3.60;;;;;;;12.99;53.48;97387.66;7382094;19;19927;-78
2023/04/15 09:28:44;;;;;;;5.70;5.10;;;;;;;13.10;53.46;97392.41;7378749;19;20283;-78
2023/04/15 09:31:11;;;;;;;7.68;5.38;;;;;;;13.10;54.45;97393.22;7371746;19;20252;-78
2023/04/15 09:33:55;;;;;;;6.80;3.60;;;;;;;12.95;54.09;97389.88;7384608;19;19926;-77
2023/04/15 09:36:23;;;;;;;6.57;3.85;;;;;;;12.99;54.11;97396.44;7384236;19;19970;-77
2023/04/15 09:38:58;;;;;;;5.00;3.95;;;;;;;13.17;55.12;97394.09;7382694;19;19930;-77
2023/04/15 09:41:27;;;;;;;7.43;3.92;;;;;;;13.47;53.54;97390.38;7382335;19;19926;-78
2023/04/15 09:43:54;;;;;;;6.22;3.85;;;;;;;13.46;52.90;97396.72;7380389;19;19927;-77
2023/04/15 09:46:40;;;;;;;4.78;4.07;;;;;;;13.65;52.87;97397.81;7386383;19;19919;-77
2023/04/15 09:49:08;;;;;;;5.25;3.55;;;;;;;13.61;51.01;97397.38;7375721;19;19922;-77
2023/04/15 09:51:35;;;;;;;5.28;3.67;;;;;;;13.69;51.83;97402.53;7384804;19;19931;-78
2023/04/15 09:54:02;;;;;;;4.90;3.60;;;;;;;13.39;50.11;97397.50;7384799;19;19926;-79
2023/04/15 09:56:37;;;;;;;5.10;3.70;;;;;;;13.37;51.44;97404.03;7390908;19;19925;-78
2023/04/15 09:59:04;;;;;;;7.05;4.10;;;;;;;13.48;52.65;97406.13;7381546;19;19918;-80
2023/04/15 10:01:34;;;;;;;5.05;3.08;;;;;;;13.47;52.27;97396.50;7386467;19;20628;-79
2023/04/15 10:04:05;;;;;;;3.80;3.45;;;;;;;13.44;53.03;97399.56;7381647;19;20348;-79
2023/04/15 10:06:32;;;;;;;5.82;3.78;;;;;;;13.44;51.05;97396.91;7387699;19;19943;-79
2023/04/15 10:08:59;;;;;;;5.50;2.53;;;;;;;13.68;51.53;97398.22;7379580;19;19911;-79
2023/04/15 10:11:30;;;;;;;4.30;2.78;;;;;;;14.08;50.38;97397.50;7383546;19;19926;-79
2023/04/15 10:13:57;;;;;;;4.38;2.78;;;;;;;14.65;51.95;97394.31;7382317;19;19952;-78
2023/04/15 10:16:27;;;;;;;5.60;2.80;;;;;;;14.93;47.93;97393.28;7393222;19;19922;-79
2023/04/15 10:18:55;;;;;;;4.47;2.47;;;;;;;14.84;47.07;97394.50;7397132;19;19986;-79
2023/04/15 10:21:22;;;;;;;3.22;2.38;;;;;;;14.98;48.21;97396.13;7391396;19;19954;-79
2023/04/15 10:23:50;;;;;;;4.32;2.60;;;;;;;14.77;48.07;97386.53;7394767;19;19915;-80
2023/04/15 10:26:17;;;;;;;4.13;2.20;;;;;;;14.93;47.43;97396.75;7389375;19;19939;-79
2023/04/15 10:28:45;;;;;;;4.72;4.07;;;;;;;14.88;47.29;97401.06;7389799;19;20416;-80
2023/04/15 10:31:13;;;;;;;3.92;2.65;;;;;;;15.06;47.11;97400.41;7383124;19;20383;-79
2023/04/15 10:33:41;;;;;;;4.30;2.55;;;;;;;14.95;47.09;97396.53;7380975;19;19930;-77
2023/04/15 10:36:09;;;;;;;3.60;2.05;;;;;;;14.82;46.83;97400.03;7380109;19;19916;-79
2023/04/15 10:38:41;;;;;;;2.92;2.30;;;;;;;14.93;46.50;97407.41;7392538;19;19953;-79
2023/04/15 10:41:15;;;;;;;3.03;2.72;;;;;;;14.85;44.88;97396.97;7380856;19;19914;-79
2023/04/15 10:43:51;;;;;;;3.47;2.90;;;;;;;15.06;45.37;97409.22;7388177;19;19918;-79
2023/04/15 10:46:20;;;;;;;3.67;2.20;;;;;;;14.90;43.96;97410.47;7381355;19;19930;-79
2023/04/15 10:48:51;;;;;;;4.10;1.85;;;;;;;15.00;44.66;97411.88;7391106;19;19921;-78
2023/04/15 10:51:29;;;;;;;3.22;2.15;;;;;;;15.22;44.50;97407.97;7384509;19;19953;-79
2023/04/15 10:54:00;;;;;;;4.30;3.05;;;;;;;15.24;44.76;97416.53;7391100;19;19926;-78
2023/04/15 10:56:30;;;;;;;5.18;2.25;;;;;;;15.22;45.96;97417.78;7388652;19;19940;-78
2023/04/15 10:59:00;;;;;;;5.05;2.90;;;;;;;15.55;44.61;97412.34;7381550;19;19943;-77
2023/04/15 11:01:51;;;;;;;3.45;2.15;;;;;;;15.77;43.59;97408.41;7386204;19;19919;-77
2023/04/15 11:04:57;;;;;;;2.78;2.55;;;;;;;15.68;42.29;97406.97;7391540;19;19914;-79
2023/04/15 11:07:43;;;;;;;5.20;2.72;;;;;;;15.84;43.87;97416.38;7387537;19;19943;-77
2023/04/15 11:10:12;;;;;;;4.00;2.40;;;;;;;16.02;44.13;97411.13;7385343;19;20340;-79
2023/04/15 11:12:40;;;;;;;3.47;2.47;;;;;;;15.93;42.58;97414.25;7389319;19;19922;-79
2023/04/15 11:15:41;;;;;;;4.35;2.83;;;;;;;16.26;42.21;97407.94;7391490;19;19911;-82
2023/04/15 11:18:08;;;;;;;4.32;3.63;;;;;;;16.58;42.67;97406.84;7382689;19;20291;-79
2023/04/15 11:20:36;;;;;;;4.97;2.67;;;;;;;17.14;42.50;97407.00;7389161;19;20332;-78
2023/04/15 11:23:03;;;;;;;4.70;3.05;;;;;;;16.72;41.83;97406.75;7382533;19;19914;-78
2023/04/15 11:25:41;;;;;;;4.30;3.40;;;;;;;16.53;42.71;97413.88;7386019;19;19943;-79
2023/04/15 11:28:10;;;;;;;6.15;3.13;;;;;;;16.17;42.29;97405.53;7374789;19;19918;-79
2023/04/15 11:30:38;;;;;;;5.18;2.78;;;;;;;16.21;42.68;97414.72;7387779;19;19919;-79
2023/04/15 11:33:07;;;;;;;4.32;3.08;;;;;;;15.96;44.22;97409.34;7388609;19;19915;-81
2023/04/15 11:35:35;;;;;;;5.40;3.40;;;;;;;15.77;45.25;97410.25;7388108;19;19927;-78
2023/04/15 11:38:03;;;;;;;5.20;4.22;;;;;;;15.59;44.86;97413.59;7383930;19;19926;-82
2023/04/15 11:40:32;;;;;;;7.13;3.50;;;;;;;15.45;45.07;97417.31;7387965;19;19922;-78
2023/04/15 11:43:05;;;;;;;4.55;3.45;;;;;;;15.24;45.66;97415.72;7386264;19;19931;-79
2023/04/15 11:45:32;;;;;;;4.13;2.75;;;;;;;15.63;44.48;97422.78;7390148;19;19926;-78